AirNav  
 
 430 users online  

1K9 Satanta Municipal Airport
Satanta, Kansas, USA


FAA INFORMATION EFFECTIVE 09 NOVEMBER 2017

Location

FAA Identifier: 1K9
Lat/Long: 37-27-24.0000N / 100-59-04.6000W
37-27.400000N / 100-59.076667W
37.4566667 / -100.9846111
(estimated)
Elevation: 2976 ft. / 907 m (estimated)
Variation: 09E (1985)
From city: 1 mile N of SATANTA, KS
Time zone: UTC -6 (UTC -5 during Daylight Saving Time)
Zip code: 67870

Airport Operations

Airport use: Open to the public
Activation date: 12/1944
Control tower: no
ARTCC: KANSAS CITY CENTER
FSS: WICHITA FLIGHT SERVICE STATION
NOTAMs facility: ICT (NOTAM-D service available)
Attendance: UNATNDD
Wind indicator: lighted
Segmented circle: no
Lights: ACTVT MIRL RY 03/21 - CTAF.
Beacon: white-green (lighted land airport)
Operates sunset to sunrise.

Airport Communications

CTAF/UNICOM: 122.8
WX AWOS-3 at 19S (8 nm E): 118.4 (620-675-8371)

Nearby radio navigation aids

VOR radial/distance  VOR name  Freq  Var
LBLr348/24.7LIBERAL VORTAC112.3011E
GCKr193/30.4GARDEN CITY VORTAC113.3011E

 
NDB name  Hdg/Dist  Freq  Var  ID
ULYSSES109/20.139506EULS ..- .-.. ...
HUGOTON038/25.636509EHQG .... --.- --.

Airport Services

Fuel available: 100LL
FUEL SELF SVC 24 HR WITH CREDIT CARD.
Parking: hangars and tiedowns
Bottled oxygen: NONE
Bulk oxygen: NONE

Runway Information

Runway 3/21

Dimensions: 3250 x 40 ft. / 991 x 12 m
Surface: asphalt, in excellent condition
Runway edge lights: medium intensity
RUNWAY 3  RUNWAY 21
Latitude: 37-27.194833N37-27.606167N
Longitude: 100-59.292167W100-58.861833W
Traffic pattern: leftleft
Markings: basic, in good conditionbasic, in good condition

Airport Ownership and Management from official FAA records

Ownership: Publicly-owned
Owner: DUDLEY TOWNSHIP
RT 1 BOX 121
SATANTA, KS 67870
Phone 620-649-2348
Manager: BILL ANTON
2268 ROAD II
SATANTA, KS 67870
Phone 620-649-7172

Airport Operational Statistics

Aircraft based on the field: 18
Single engine airplanes: 18
    
Aircraft operations: avg 57/week *
83% local general aviation
17% transient general aviation
* for 12-month period ending 01 September 2015

Additional Remarks

A58-21 ROAD AT 20' FM RY END.
A58-03 OIL PUMP RIG AT 130 FT FROM RY END; 65 FT LEFT OF CNTRLN - LGTD +15 FT.
A52-03 OIL WELL 160 FT S OF RY 03; GRAIN ELEVATORS 1 MI S; TWR 1 MI SW.
UNLGTD 200 FT AND ANT 7500 FT SW OF RY 03.

Instrument Procedures

There are no published instrument procedures at 1K9.

Some nearby airports with instrument procedures:

KULS - Ulysses Airport (21 nm NW)
KLBL - Liberal Mid-America Regional Airport (25 nm S)
KHQG - Hugoton Municipal Airport (25 nm SW)
KGCK - Garden City Regional Airport (31 nm NE)
KMEJ - Meade Municipal Airport (32 nm E)
 
Loc | Ops | Rwys | IFR | FBO | Links
Com | Nav | Svcs | Stats | Notes

Kansas City Aviation Department
 
Area around 1K9 (Satanta Municipal Airport)
 
Road maps at: MapQuest Bing Google
 
Aerial photo
WARNING: Photo may not be current or correct
Aerial photo of 1K9 (Satanta Municipal Airport)
Photo by Von Rothenberger
Photo taken 13-Aug-2010
looking north.

Do you have a better or more recent aerial photo of Satanta Municipal Airport that you would like to share? If so, please send us your photo.

 
Sectional chart

 
Airport distance calculator
Flying to Satanta Municipal Airport? Find the distance to fly.

From to 1K9

Sunrise and sunset
Times for 18-Nov-2017
 Local
(UTC-6)
 Zulu
(UTC)
Morning civil twilight07:0013:00
Sunrise07:2813:28
Sunset17:3123:31
Evening civil twilight17:5923:59

Current date and time
Zulu (UTC)  18-Nov-2017 07:00:29
Local (UTC-6)  18-Nov-2017 01:00:29
 
METAR
KLBL 
25nm S 
180603Z AUTO 35021G30KT 10SM CLR 10/02 A2963 RMK AO2 PK WND 36029/0557 WSHFT 0543
KHQG 
25nm SW 
180635Z AUTO 36016KT 10SM CLR 08/00 A2971 RMK AO2 T00771005
KGCK 
30nm NE 
180654Z AUTO 35015G25KT 10SM CLR 06/M01 A2971 RMK AO2 SLP043 T00561006
KJHN 
36nm W 
180655Z AUTO 33017G21KT 10SM CLR 06/00 A2978 RMK AO2 T00601005
K3K3 
49nm NW 
180635Z AUTO 36016G23KT 10SM CLR 05/00 A2974 RMK AO2
TAF
KLBL 
25nm S 
180539Z 1806/1906 34019G27KT P6SM SCT250 FM181000 34026G35KT P6SM BKN030 FM181400 34026G35KT P6SM SCT035 FM182200 33017KT P6SM SKC FM190100 32008KT P6SM SKC
KGCK 
30nm NE 
180539Z 1806/1906 34013G19KT P6SM SCT250 FM180800 33020G30KT P6SM SCT250 FM181100 34026G35KT P6SM BKN030 FM181400 34026G35KT P6SM SCT035 FM182200 33017KT P6SM SKC FM190100 32008KT P6SM SKC
NOTAMs
Click for the latest NOTAMs
NOTAMs are issued by the DoD/FAA and will open in a separate window not controlled by AirNav.

 

 
 

FBO, Fuel Providers, and Aircraft Ground Support

  
 Business Name 
 
 Contact 
 
 Services / Description 
 
Fuel Prices
 
Comments
  
Corner Express 620-649-2956
[email]
Aviation fuel

More info about Corner Express
independent
100LL
SS $4.30 
 Updated 06-Nov-2017
 
   2 read write
SS=Self service
Update Fuel Prices
 

Would you like to see your business listed on this page?

 If your business provides an interesting product or service to pilots, flight crews, aircraft, or users of the Satanta Municipal Airport, you should consider listing it here.  To start the listing process, click on the button below
 
Add a business
 

Other Pages about Satanta Municipal Airport

Update a link
 
Copyright © AirNav, LLC. All rights reserved. Privacy Policy  Contact